Terminal Aerodrome Forecast
Issued by NWS Grand Forks, ND

Home | Current Version | Previous Version | Text Only | Print | Product List | Glossary Off
Versions: 1 2 3 4 5 6 7 8 9 10 11 12 13 14 15 16 17

861
FTUS43 KFGF 252323
TAFFAR
TAF
KFAR 252323Z 2600/2624 34012KT P6SM SCT060 BKN100
     FM260300 35005KT P6SM SKC
     FM261600 33009KT P6SM SCT060=

USA.gov is the U.S. government's official web portal to all federal, state and local government web resources and services.